sensor_id;sensor_type;location;lat;lon;timestamp;temperature;humidity
8910;DHT22;4490;49.072;8.804;2023-02-01T00:01:55;5.50;99.90
8910;DHT22;4490;49.072;8.804;2023-02-01T00:04:21;5.60;99.90
8910;DHT22;4490;49.072;8.804;2023-02-01T00:06:47;5.60;99.90
8910;DHT22;4490;49.072;8.804;2023-02-01T00:09:13;5.60;99.90
8910;DHT22;4490;49.072;8.804;2023-02-01T00:11:39;5.60;99.90
8910;DHT22;4490;49.072;8.804;2023-02-01T00:14:05;5.60;99.90
8910;DHT22;4490;49.072;8.804;2023-02-01T00:16:31;5.60;99.90
8910;DHT22;4490;49.072;8.804;2023-02-01T00:19:09;5.60;99.90
8910;DHT22;4490;49.072;8.804;2023-02-01T00:21:35;5.60;99.90
8910;DHT22;4490;49.072;8.804;2023-02-01T00:24:01;5.60;99.90
8910;DHT22;4490;49.072;8.804;2023-02-01T00:26:33;5.60;99.90
8910;DHT22;4490;49.072;8.804;2023-02-01T00:28:59;5.50;99.90
8910;DHT22;4490;49.072;8.804;2023-02-01T00:31:25;5.60;99.90
8910;DHT22;4490;49.072;8.804;2023-02-01T00:33:51;5.60;99.90
8910;DHT22;4490;49.072;8.804;2023-02-01T00:36:17;5.60;99.90
8910;DHT22;4490;49.072;8.804;2023-02-01T00:38:43;5.60;99.90
8910;DHT22;4490;49.072;8.804;2023-02-01T00:41:14;5.60;99.90
8910;DHT22;4490;49.072;8.804;2023-02-01T00:43:40;5.70;99.90
8910;DHT22;4490;49.072;8.804;2023-02-01T00:46:06;5.70;99.90
8910;DHT22;4490;49.072;8.804;2023-02-01T00:48:32;5.70;99.90
8910;DHT22;4490;49.072;8.804;2023-02-01T00:51:01;5.70;99.90
8910;DHT22;4490;49.072;8.804;2023-02-01T00:53:28;5.70;99.90
8910;DHT22;4490;49.072;8.804;2023-02-01T00:55:54;5.70;99.90
8910;DHT22;4490;49.072;8.804;2023-02-01T00:58:19;5.70;99.90
8910;DHT22;4490;49.072;8.804;2023-02-01T01:00:45;5.70;99.90
8910;DHT22;4490;49.072;8.804;2023-02-01T01:03:12;5.60;99.90
8910;DHT22;4490;49.072;8.804;2023-02-01T01:05:45;5.70;99.90
8910;DHT22;4490;49.072;8.804;2023-02-01T01:08:11;5.70;99.90
8910;DHT22;4490;49.072;8.804;2023-02-01T01:10:36;5.70;99.90
8910;DHT22;4490;49.072;8.804;2023-02-01T01:13:02;5.80;99.90
8910;DHT22;4490;49.072;8.804;2023-02-01T01:15:27;5.80;99.90
8910;DHT22;4490;49.072;8.804;2023-02-01T01:17:53;5.80;99.90
8910;DHT22;4490;49.072;8.804;2023-02-01T01:20:19;5.80;99.90
8910;DHT22;4490;49.072;8.804;2023-02-01T01:22:47;5.80;99.90
8910;DHT22;4490;49.072;8.804;2023-02-01T01:25:13;5.80;99.90
8910;DHT22;4490;49.072;8.804;2023-02-01T01:27:39;5.90;99.90
8910;DHT22;4490;49.072;8.804;2023-02-01T01:30:05;5.90;99.90
8910;DHT22;4490;49.072;8.804;2023-02-01T01:32:31;5.90;99.90
8910;DHT22;4490;49.072;8.804;2023-02-01T01:34:56;5.90;99.90
8910;DHT22;4490;49.072;8.804;2023-02-01T01:37:22;6.00;99.90
8910;DHT22;4490;49.072;8.804;2023-02-01T01:39:47;5.90;99.90
8910;DHT22;4490;49.072;8.804;2023-02-01T01:42:13;6.00;99.90
8910;DHT22;4490;49.072;8.804;2023-02-01T01:45:19;5.90;99.90
8910;DHT22;4490;49.072;8.804;2023-02-01T01:47:49;6.00;99.90
8910;DHT22;4490;49.072;8.804;2023-02-01T01:50:19;6.00;99.90
8910;DHT22;4490;49.072;8.804;2023-02-01T01:52:49;6.00;99.90
8910;DHT22;4490;49.072;8.804;2023-02-01T01:55:17;6.00;99.90
8910;DHT22;4490;49.072;8.804;2023-02-01T01:57:48;6.00;99.90
8910;DHT22;4490;49.072;8.804;2023-02-01T02:00:17;6.00;99.90
8910;DHT22;4490;49.072;8.804;2023-02-01T02:02:47;6.00;99.90
8910;DHT22;4490;49.072;8.804;2023-02-01T02:05:13;6.00;99.90
8910;DHT22;4490;49.072;8.804;2023-02-01T02:07:43;6.00;99.90
8910;DHT22;4490;49.072;8.804;2023-02-01T02:10:12;6.00;99.90
8910;DHT22;4490;49.072;8.804;2023-02-01T02:12:41;6.00;99.90
8910;DHT22;4490;49.072;8.804;2023-02-01T02:15:08;6.00;99.90
8910;DHT22;4490;49.072;8.804;2023-02-01T02:18:08;6.00;99.90
8910;DHT22;4490;49.072;8.804;2023-02-01T02:21:03;6.00;99.90
8910;DHT22;4490;49.072;8.804;2023-02-01T02:34:37;5.90;99.90
8910;DHT22;4490;49.072;8.804;2023-02-01T02:37:31;6.00;99.90
8910;DHT22;4490;49.072;8.804;2023-02-01T02:45:57;6.00;99.90
8910;DHT22;4490;49.072;8.804;2023-02-01T02:49:34;6.00;99.90
8910;DHT22;4490;49.072;8.804;2023-02-01T02:51:46;6.00;99.90
8910;DHT22;4490;49.072;8.804;2023-02-01T02:54:36;6.00;99.90
8910;DHT22;4490;49.072;8.804;2023-02-01T03:00:16;6.10;99.90
8910;DHT22;4490;49.072;8.804;2023-02-01T03:03:01;6.10;99.90
8910;DHT22;4490;49.072;8.804;2023-02-01T03:05:47;6.10;99.90
8910;DHT22;4490;49.072;8.804;2023-02-01T03:08:18;6.20;99.90
8910;DHT22;4490;49.072;8.804;2023-02-01T03:10:47;6.20;99.90
8910;DHT22;4490;49.072;8.804;2023-02-01T03:18:35;6.20;99.90
8910;DHT22;4490;49.072;8.804;2023-02-01T03:21:08;6.30;99.90
8910;DHT22;4490;49.072;8.804;2023-02-01T03:23:36;6.30;99.90
8910;DHT22;4490;49.072;8.804;2023-02-01T03:26:06;6.20;99.90
8910;DHT22;4490;49.072;8.804;2023-02-01T03:28:33;6.30;99.90
8910;DHT22;4490;49.072;8.804;2023-02-01T03:31:00;6.20;99.90
8910;DHT22;4490;49.072;8.804;2023-02-01T03:33:27;6.20;99.90
8910;DHT22;4490;49.072;8.804;2023-02-01T03:36:23;6.20;99.90
8910;DHT22;4490;49.072;8.804;2023-02-01T03:39:05;6.20;99.90
8910;DHT22;4490;49.072;8.804;2023-02-01T03:41:50;6.20;99.90
8910;DHT22;4490;49.072;8.804;2023-02-01T03:44:33;6.20;99.90
8910;DHT22;4490;49.072;8.804;2023-02-01T03:47:19;6.10;99.90
8910;DHT22;4490;49.072;8.804;2023-02-01T03:49:49;6.10;99.90
8910;DHT22;4490;49.072;8.804;2023-02-01T03:52:24;6.20;99.90
8910;DHT22;4490;49.072;8.804;2023-02-01T03:54:51;6.20;99.90
8910;DHT22;4490;49.072;8.804;2023-02-01T03:57:22;6.20;99.90
8910;DHT22;4490;49.072;8.804;2023-02-01T03:59:49;6.20;99.90
8910;DHT22;4490;49.072;8.804;2023-02-01T04:02:15;6.20;99.90
8910;DHT22;4490;49.072;8.804;2023-02-01T04:04:41;6.20;99.90
8910;DHT22;4490;49.072;8.804;2023-02-01T04:07:07;6.20;99.90
8910;DHT22;4490;49.072;8.804;2023-02-01T04:09:32;6.20;99.90
8910;DHT22;4490;49.072;8.804;2023-02-01T04:11:58;6.20;99.90
8910;DHT22;4490;49.072;8.804;2023-02-01T04:14:23;6.20;99.90
8910;DHT22;4490;49.072;8.804;2023-02-01T04:16:49;6.30;99.90
8910;DHT22;4490;49.072;8.804;2023-02-01T04:19:14;6.30;99.90
8910;DHT22;4490;49.072;8.804;2023-02-01T04:21:40;6.30;99.90
8910;DHT22;4490;49.072;8.804;2023-02-01T04:24:06;6.30;99.90
8910;DHT22;4490;49.072;8.804;2023-02-01T04:26:32;6.30;99.90
8910;DHT22;4490;49.072;8.804;2023-02-01T04:28:57;6.20;99.90
8910;DHT22;4490;49.072;8.804;2023-02-01T04:31:23;6.10;99.90
8910;DHT22;4490;49.072;8.804;2023-02-01T04:33:53;6.00;99.90
8910;DHT22;4490;49.072;8.804;2023-02-01T04:36:20;6.00;99.90
8910;DHT22;4490;49.072;8.804;2023-02-01T04:38:49;5.90;99.90
8910;DHT22;4490;49.072;8.804;2023-02-01T04:41:15;5.90;99.90
8910;DHT22;4490;49.072;8.804;2023-02-01T04:43:48;5.90;99.90
8910;DHT22;4490;49.072;8.804;2023-02-01T04:46:14;5.80;99.90
8910;DHT22;4490;49.072;8.804;2023-02-01T04:48:40;5.80;99.90
8910;DHT22;4490;49.072;8.804;2023-02-01T04:51:06;5.70;99.90
8910;DHT22;4490;49.072;8.804;2023-02-01T04:53:31;5.70;99.90
8910;DHT22;4490;49.072;8.804;2023-02-01T04:55:57;5.80;99.90
8910;DHT22;4490;49.072;8.804;2023-02-01T04:58:23;5.70;99.90
8910;DHT22;4490;49.072;8.804;2023-02-01T05:00:48;5.70;99.90
8910;DHT22;4490;49.072;8.804;2023-02-01T05:03:15;5.70;99.90
8910;DHT22;4490;49.072;8.804;2023-02-01T05:05:40;5.70;99.90
8910;DHT22;4490;49.072;8.804;2023-02-01T05:08:06;5.70;99.90
8910;DHT22;4490;49.072;8.804;2023-02-01T05:10:32;5.60;99.90
8910;DHT22;4490;49.072;8.804;2023-02-01T05:12:57;5.60;99.90
8910;DHT22;4490;49.072;8.804;2023-02-01T05:15:41;5.60;99.90
8910;DHT22;4490;49.072;8.804;2023-02-01T05:18:07;5.50;99.90
8910;DHT22;4490;49.072;8.804;2023-02-01T05:20:33;5.50;99.90
8910;DHT22;4490;49.072;8.804;2023-02-01T05:22:58;5.40;99.90
8910;DHT22;4490;49.072;8.804;2023-02-01T05:25:24;5.40;99.90
8910;DHT22;4490;49.072;8.804;2023-02-01T05:27:49;5.40;99.90
8910;DHT22;4490;49.072;8.804;2023-02-01T05:30:15;5.30;99.90
8910;DHT22;4490;49.072;8.804;2023-02-01T05:32:41;5.30;99.90
8910;DHT22;4490;49.072;8.804;2023-02-01T05:35:07;5.40;99.90
8910;DHT22;4490;49.072;8.804;2023-02-01T05:37:32;5.40;99.90
8910;DHT22;4490;49.072;8.804;2023-02-01T05:39:58;5.50;99.90
8910;DHT22;4490;49.072;8.804;2023-02-01T05:42:24;5.50;99.90
8910;DHT22;4490;49.072;8.804;2023-02-01T05:44:49;5.50;99.90
8910;DHT22;4490;49.072;8.804;2023-02-01T05:47:15;5.50;99.90
8910;DHT22;4490;49.072;8.804;2023-02-01T05:49:40;5.60;99.90
8910;DHT22;4490;49.072;8.804;2023-02-01T05:52:06;5.60;99.90
8910;DHT22;4490;49.072;8.804;2023-02-01T05:54:31;5.60;99.90
8910;DHT22;4490;49.072;8.804;2023-02-01T05:56:57;5.60;99.90
8910;DHT22;4490;49.072;8.804;2023-02-01T05:59:23;5.70;99.90
8910;DHT22;4490;49.072;8.804;2023-02-01T06:01:48;5.70;99.90
8910;DHT22;4490;49.072;8.804;2023-02-01T06:04:14;5.70;99.90
8910;DHT22;4490;49.072;8.804;2023-02-01T06:06:40;5.70;99.90
8910;DHT22;4490;49.072;8.804;2023-02-01T06:09:06;5.70;99.90
8910;DHT22;4490;49.072;8.804;2023-02-01T06:11:31;5.70;99.90
8910;DHT22;4490;49.072;8.804;2023-02-01T06:13:57;5.70;99.90
8910;DHT22;4490;49.072;8.804;2023-02-01T06:16:23;5.80;99.90
8910;DHT22;4490;49.072;8.804;2023-02-01T06:18:49;5.80;99.90
8910;DHT22;4490;49.072;8.804;2023-02-01T06:21:14;5.80;99.90
8910;DHT22;4490;49.072;8.804;2023-02-01T06:23:51;5.80;99.90
8910;DHT22;4490;49.072;8.804;2023-02-01T06:26:17;5.80;99.90
8910;DHT22;4490;49.072;8.804;2023-02-01T06:28:43;5.90;99.90
8910;DHT22;4490;49.072;8.804;2023-02-01T06:31:09;5.80;99.90
8910;DHT22;4490;49.072;8.804;2023-02-01T06:33:36;5.80;99.90
8910;DHT22;4490;49.072;8.804;2023-02-01T06:36:03;5.80;99.90
8910;DHT22;4490;49.072;8.804;2023-02-01T06:38:30;5.70;99.90
8910;DHT22;4490;49.072;8.804;2023-02-01T06:40:57;5.70;99.90
8910;DHT22;4490;49.072;8.804;2023-02-01T06:43:24;5.80;99.90
8910;DHT22;4490;49.072;8.804;2023-02-01T06:45:51;5.80;99.90
8910;DHT22;4490;49.072;8.804;2023-02-01T06:48:17;5.80;99.90
8910;DHT22;4490;49.072;8.804;2023-02-01T06:50:42;5.80;99.90
8910;DHT22;4490;49.072;8.804;2023-02-01T06:53:08;5.70;99.90
8910;DHT22;4490;49.072;8.804;2023-02-01T06:55:34;5.80;99.90
8910;DHT22;4490;49.072;8.804;2023-02-01T06:58:00;5.80;99.90
8910;DHT22;4490;49.072;8.804;2023-02-01T07:00:28;5.80;99.90
8910;DHT22;4490;49.072;8.804;2023-02-01T07:02:53;5.80;99.90
8910;DHT22;4490;49.072;8.804;2023-02-01T07:05:19;5.80;99.90
8910;DHT22;4490;49.072;8.804;2023-02-01T07:07:45;5.80;99.90
8910;DHT22;4490;49.072;8.804;2023-02-01T07:10:10;5.80;99.90
8910;DHT22;4490;49.072;8.804;2023-02-01T07:12:36;5.70;99.90
8910;DHT22;4490;49.072;8.804;2023-02-01T07:15:03;5.70;99.90
8910;DHT22;4490;49.072;8.804;2023-02-01T07:17:29;5.70;99.90
8910;DHT22;4490;49.072;8.804;2023-02-01T07:19:55;5.70;99.90
8910;DHT22;4490;49.072;8.804;2023-02-01T07:22:21;5.70;99.90
8910;DHT22;4490;49.072;8.804;2023-02-01T07:24:46;5.70;99.90
8910;DHT22;4490;49.072;8.804;2023-02-01T07:27:12;5.70;99.90
8910;DHT22;4490;49.072;8.804;2023-02-01T07:29:38;5.60;99.90
8910;DHT22;4490;49.072;8.804;2023-02-01T07:32:03;5.60;99.90
8910;DHT22;4490;49.072;8.804;2023-02-01T07:34:29;5.70;99.90
8910;DHT22;4490;49.072;8.804;2023-02-01T07:36:56;5.70;99.90
8910;DHT22;4490;49.072;8.804;2023-02-01T07:39:22;5.70;99.90
8910;DHT22;4490;49.072;8.804;2023-02-01T07:41:47;5.70;99.90
8910;DHT22;4490;49.072;8.804;2023-02-01T07:44:13;5.70;99.90
8910;DHT22;4490;49.072;8.804;2023-02-01T07:46:39;5.60;99.90
8910;DHT22;4490;49.072;8.804;2023-02-01T07:49:05;5.60;99.90
8910;DHT22;4490;49.072;8.804;2023-02-01T07:51:30;5.60;99.90
8910;DHT22;4490;49.072;8.804;2023-02-01T07:53:56;5.60;99.90
8910;DHT22;4490;49.072;8.804;2023-02-01T07:56:22;5.60;99.90
8910;DHT22;4490;49.072;8.804;2023-02-01T07:58:53;5.70;99.90
8910;DHT22;4490;49.072;8.804;2023-02-01T08:01:24;5.70;99.90
8910;DHT22;4490;49.072;8.804;2023-02-01T08:03:58;5.70;99.90
8910;DHT22;4490;49.072;8.804;2023-02-01T08:06:25;5.70;99.90
8910;DHT22;4490;49.072;8.804;2023-02-01T08:08:51;5.70;99.90
8910;DHT22;4490;49.072;8.804;2023-02-01T08:11:18;5.70;99.90
8910;DHT22;4490;49.072;8.804;2023-02-01T08:13:44;5.80;99.90
8910;DHT22;4490;49.072;8.804;2023-02-01T08:16:11;5.80;99.90
8910;DHT22;4490;49.072;8.804;2023-02-01T08:18:38;5.80;99.90
8910;DHT22;4490;49.072;8.804;2023-02-01T08:21:25;5.90;99.90
8910;DHT22;4490;49.072;8.804;2023-02-01T08:23:51;5.90;99.90
8910;DHT22;4490;49.072;8.804;2023-02-01T08:26:18;6.00;99.90
8910;DHT22;4490;49.072;8.804;2023-02-01T08:28:47;6.00;99.90
8910;DHT22;4490;49.072;8.804;2023-02-01T08:31:16;6.00;99.90
8910;DHT22;4490;49.072;8.804;2023-02-01T08:33:44;6.00;99.90
8910;DHT22;4490;49.072;8.804;2023-02-01T08:36:13;6.00;99.90
8910;DHT22;4490;49.072;8.804;2023-02-01T08:38:39;6.00;99.90
8910;DHT22;4490;49.072;8.804;2023-02-01T08:41:13;6.00;99.90
8910;DHT22;4490;49.072;8.804;2023-02-01T08:43:39;6.10;99.90
8910;DHT22;4490;49.072;8.804;2023-02-01T08:46:06;6.10;99.90
8910;DHT22;4490;49.072;8.804;2023-02-01T08:48:33;6.10;99.90
8910;DHT22;4490;49.072;8.804;2023-02-01T08:51:11;6.10;99.90
8910;DHT22;4490;49.072;8.804;2023-02-01T08:53:38;6.10;99.90
8910;DHT22;4490;49.072;8.804;2023-02-01T08:56:06;6.10;99.90
8910;DHT22;4490;49.072;8.804;2023-02-01T08:58:33;6.10;99.90
8910;DHT22;4490;49.072;8.804;2023-02-01T09:01:06;6.10;99.90
8910;DHT22;4490;49.072;8.804;2023-02-01T09:03:32;6.10;99.90
8910;DHT22;4490;49.072;8.804;2023-02-01T09:06:05;6.20;99.90
8910;DHT22;4490;49.072;8.804;2023-02-01T09:08:32;6.20;99.90
8910;DHT22;4490;49.072;8.804;2023-02-01T09:11:03;6.20;99.90
8910;DHT22;4490;49.072;8.804;2023-02-01T09:13:29;6.20;99.90
8910;DHT22;4490;49.072;8.804;2023-02-01T09:15:55;6.20;99.90
8910;DHT22;4490;49.072;8.804;2023-02-01T09:18:20;6.30;99.90
8910;DHT22;4490;49.072;8.804;2023-02-01T09:20:46;6.20;99.90
8910;DHT22;4490;49.072;8.804;2023-02-01T09:23:12;6.20;99.90
8910;DHT22;4490;49.072;8.804;2023-02-01T09:25:38;6.20;99.90
8910;DHT22;4490;49.072;8.804;2023-02-01T09:28:04;6.20;99.90
8910;DHT22;4490;49.072;8.804;2023-02-01T09:30:32;6.30;99.90
8910;DHT22;4490;49.072;8.804;2023-02-01T09:32:57;6.30;99.90
8910;DHT22;4490;49.072;8.804;2023-02-01T09:35:23;6.40;99.90
8910;DHT22;4490;49.072;8.804;2023-02-01T09:37:49;6.40;99.90
8910;DHT22;4490;49.072;8.804;2023-02-01T09:40:16;6.50;99.90
8910;DHT22;4490;49.072;8.804;2023-02-01T09:45:22;6.70;99.90
8910;DHT22;4490;49.072;8.804;2023-02-01T09:47:57;6.70;99.90
8910;DHT22;4490;49.072;8.804;2023-02-01T09:50:34;6.70;99.90
8910;DHT22;4490;49.072;8.804;2023-02-01T09:55:42;6.80;99.90
8910;DHT22;4490;49.072;8.804;2023-02-01T09:58:11;6.80;99.90
8910;DHT22;4490;49.072;8.804;2023-02-01T10:00:39;6.90;99.90
8910;DHT22;4490;49.072;8.804;2023-02-01T10:03:05;6.90;99.90
8910;DHT22;4490;49.072;8.804;2023-02-01T10:06:16;7.00;99.90
8910;DHT22;4490;49.072;8.804;2023-02-01T10:11:39;7.00;99.90
8910;DHT22;4490;49.072;8.804;2023-02-01T10:25:22;7.10;99.90
8910;DHT22;4490;49.072;8.804;2023-02-01T10:27:49;7.10;99.90
8910;DHT22;4490;49.072;8.804;2023-02-01T10:30:29;7.00;99.90
8910;DHT22;4490;49.072;8.804;2023-02-01T10:33:32;7.10;99.90
8910;DHT22;4490;49.072;8.804;2023-02-01T10:36:08;7.00;99.90
8910;DHT22;4490;49.072;8.804;2023-02-01T10:38:37;7.00;99.90
8910;DHT22;4490;49.072;8.804;2023-02-01T10:41:20;7.00;99.90
8910;DHT22;4490;49.072;8.804;2023-02-01T10:43:54;7.00;99.90
8910;DHT22;4490;49.072;8.804;2023-02-01T10:46:22;7.10;99.90
8910;DHT22;4490;49.072;8.804;2023-02-01T10:48:50;7.10;99.90
8910;DHT22;4490;49.072;8.804;2023-02-01T10:52:12;7.20;99.90
8910;DHT22;4490;49.072;8.804;2023-02-01T10:54:20;7.30;99.90
8910;DHT22;4490;49.072;8.804;2023-02-01T10:56:47;7.30;99.90
8910;DHT22;4490;49.072;8.804;2023-02-01T10:59:23;7.30;99.90
8910;DHT22;4490;49.072;8.804;2023-02-01T11:01:50;7.30;99.90
8910;DHT22;4490;49.072;8.804;2023-02-01T11:04:24;7.30;99.90
8910;DHT22;4490;49.072;8.804;2023-02-01T11:06:55;7.30;99.90
8910;DHT22;4490;49.072;8.804;2023-02-01T11:09:31;7.30;99.90
8910;DHT22;4490;49.072;8.804;2023-02-01T11:11:58;7.30;99.90
8910;DHT22;4490;49.072;8.804;2023-02-01T11:17:01;7.30;99.90
8910;DHT22;4490;49.072;8.804;2023-02-01T11:19:29;7.30;99.90
8910;DHT22;4490;49.072;8.804;2023-02-01T11:21:58;7.30;99.90
8910;DHT22;4490;49.072;8.804;2023-02-01T11:24:34;7.30;99.90
8910;DHT22;4490;49.072;8.804;2023-02-01T11:27:03;7.30;99.90
8910;DHT22;4490;49.072;8.804;2023-02-01T11:29:42;7.30;99.90
8910;DHT22;4490;49.072;8.804;2023-02-01T11:32:10;7.30;99.90
8910;DHT22;4490;49.072;8.804;2023-02-01T11:34:38;7.30;99.90
8910;DHT22;4490;49.072;8.804;2023-02-01T11:37:18;7.20;99.90
8910;DHT22;4490;49.072;8.804;2023-02-01T11:39:57;7.30;99.90
8910;DHT22;4490;49.072;8.804;2023-02-01T11:42:24;7.30;99.90
8910;DHT22;4490;49.072;8.804;2023-02-01T11:44:50;7.20;99.90
8910;DHT22;4490;49.072;8.804;2023-02-01T11:50:01;7.30;99.90
8910;DHT22;4490;49.072;8.804;2023-02-01T12:03:11;7.30;99.90
8910;DHT22;4490;49.072;8.804;2023-02-01T12:08:53;7.30;99.90
8910;DHT22;4490;49.072;8.804;2023-02-01T12:11:44;7.30;99.90
8910;DHT22;4490;49.072;8.804;2023-02-01T12:17:16;7.40;99.90
8910;DHT22;4490;49.072;8.804;2023-02-01T12:33:40;7.40;99.90
8910;DHT22;4490;49.072;8.804;2023-02-01T12:36:15;7.50;99.90
8910;DHT22;4490;49.072;8.804;2023-02-01T12:38:52;7.40;99.90
8910;DHT22;4490;49.072;8.804;2023-02-01T12:44:00;7.40;99.90
8910;DHT22;4490;49.072;8.804;2023-02-01T12:46:31;7.40;99.90
8910;DHT22;4490;49.072;8.804;2023-02-01T12:49:17;7.40;99.90
8910;DHT22;4490;49.072;8.804;2023-02-01T12:51:48;7.50;99.90
8910;DHT22;4490;49.072;8.804;2023-02-01T12:57:06;7.50;99.90
8910;DHT22;4490;49.072;8.804;2023-02-01T13:00:07;7.50;99.90
8910;DHT22;4490;49.072;8.804;2023-02-01T13:02:48;7.40;99.90
8910;DHT22;4490;49.072;8.804;2023-02-01T13:05:19;7.50;99.90
8910;DHT22;4490;49.072;8.804;2023-02-01T13:07:53;7.40;99.90
8910;DHT22;4490;49.072;8.804;2023-02-01T13:10:36;7.50;99.90
8910;DHT22;4490;49.072;8.804;2023-02-01T13:15:49;7.40;99.90
8910;DHT22;4490;49.072;8.804;2023-02-01T13:18:19;7.40;99.90
8910;DHT22;4490;49.072;8.804;2023-02-01T13:21:20;7.40;99.90
8910;DHT22;4490;49.072;8.804;2023-02-01T13:23:48;7.40;99.90
8910;DHT22;4490;49.072;8.804;2023-02-01T13:26:14;7.40;99.90
8910;DHT22;4490;49.072;8.804;2023-02-01T13:29:02;7.40;99.90
8910;DHT22;4490;49.072;8.804;2023-02-01T13:31:37;7.40;99.90
8910;DHT22;4490;49.072;8.804;2023-02-01T13:37:18;7.40;99.90
8910;DHT22;4490;49.072;8.804;2023-02-01T13:42:31;7.30;99.90
8910;DHT22;4490;49.072;8.804;2023-02-01T13:45:05;7.30;99.90
8910;DHT22;4490;49.072;8.804;2023-02-01T13:47:44;7.30;99.90
8910;DHT22;4490;49.072;8.804;2023-02-01T13:55:39;7.40;99.90
8910;DHT22;4490;49.072;8.804;2023-02-01T13:58:14;7.50;99.90
8910;DHT22;4490;49.072;8.804;2023-02-01T14:00:42;7.50;99.90
8910;DHT22;4490;49.072;8.804;2023-02-01T14:03:20;7.40;99.90
8910;DHT22;4490;49.072;8.804;2023-02-01T14:08:24;7.40;98.80
8910;DHT22;4490;49.072;8.804;2023-02-01T14:11:00;7.40;99.90
8910;DHT22;4490;49.072;8.804;2023-02-01T14:21:19;7.40;98.90
8910;DHT22;4490;49.072;8.804;2023-02-01T14:26:24;7.40;98.30
8910;DHT22;4490;49.072;8.804;2023-02-01T14:28:52;7.30;99.30
8910;DHT22;4490;49.072;8.804;2023-02-01T14:33:58;7.30;99.70
8910;DHT22;4490;49.072;8.804;2023-02-01T14:36:26;7.30;99.90
8910;DHT22;4490;49.072;8.804;2023-02-01T14:39:04;7.30;99.90
8910;DHT22;4490;49.072;8.804;2023-02-01T14:41:31;7.20;99.70
8910;DHT22;4490;49.072;8.804;2023-02-01T14:47:04;7.20;99.70
8910;DHT22;4490;49.072;8.804;2023-02-01T14:49:52;7.20;99.00
8910;DHT22;4490;49.072;8.804;2023-02-01T14:52:21;7.30;99.60
8910;DHT22;4490;49.072;8.804;2023-02-01T14:54:54;7.20;98.90
8910;DHT22;4490;49.072;8.804;2023-02-01T14:57:25;7.20;98.60
8910;DHT22;4490;49.072;8.804;2023-02-01T14:59:59;7.20;98.70
8910;DHT22;4490;49.072;8.804;2023-02-01T15:02:26;7.20;98.60
8910;DHT22;4490;49.072;8.804;2023-02-01T15:04:56;7.20;98.40
8910;DHT22;4490;49.072;8.804;2023-02-01T15:07:24;7.20;98.40
8910;DHT22;4490;49.072;8.804;2023-02-01T15:09:52;7.20;97.30
8910;DHT22;4490;49.072;8.804;2023-02-01T15:12:24;7.30;98.10
8910;DHT22;4490;49.072;8.804;2023-02-01T15:15:14;7.30;97.40
8910;DHT22;4490;49.072;8.804;2023-02-01T15:17:41;7.30;97.20
8910;DHT22;4490;49.072;8.804;2023-02-01T15:20:20;7.30;97.80
8910;DHT22;4490;49.072;8.804;2023-02-01T15:22:54;7.30;97.30
8910;DHT22;4490;49.072;8.804;2023-02-01T15:25:23;7.20;97.50
8910;DHT22;4490;49.072;8.804;2023-02-01T15:27:49;7.30;97.50
8910;DHT22;4490;49.072;8.804;2023-02-01T15:30:24;7.30;97.40
8910;DHT22;4490;49.072;8.804;2023-02-01T15:32:51;7.20;97.00
8910;DHT22;4490;49.072;8.804;2023-02-01T15:35:42;7.30;97.50
8910;DHT22;4490;49.072;8.804;2023-02-01T15:38:41;7.20;96.50
8910;DHT22;4490;49.072;8.804;2023-02-01T15:41:17;7.30;95.20
8910;DHT22;4490;49.072;8.804;2023-02-01T15:46:42;7.30;96.10
8910;DHT22;4490;49.072;8.804;2023-02-01T15:49:28;7.30;95.50
8910;DHT22;4490;49.072;8.804;2023-02-01T15:51:55;7.30;95.60
8910;DHT22;4490;49.072;8.804;2023-02-01T15:54:36;7.30;95.80
8910;DHT22;4490;49.072;8.804;2023-02-01T15:57:05;7.30;95.90
8910;DHT22;4490;49.072;8.804;2023-02-01T15:59:36;7.30;95.70
8910;DHT22;4490;49.072;8.804;2023-02-01T16:02:02;7.30;95.10
8910;DHT22;4490;49.072;8.804;2023-02-01T16:04:29;7.30;95.40
8910;DHT22;4490;49.072;8.804;2023-02-01T16:07:03;7.30;95.60
8910;DHT22;4490;49.072;8.804;2023-02-01T16:09:48;7.30;95.10
8910;DHT22;4490;49.072;8.804;2023-02-01T16:12:44;7.30;94.80
8910;DHT22;4490;49.072;8.804;2023-02-01T16:15:11;7.20;94.70
8910;DHT22;4490;49.072;8.804;2023-02-01T16:17:37;7.20;95.00
8910;DHT22;4490;49.072;8.804;2023-02-01T16:20:03;7.20;95.00
8910;DHT22;4490;49.072;8.804;2023-02-01T16:22:29;7.30;94.80
8910;DHT22;4490;49.072;8.804;2023-02-01T16:24:55;7.20;94.70
8910;DHT22;4490;49.072;8.804;2023-02-01T16:27:20;7.20;94.80
8910;DHT22;4490;49.072;8.804;2023-02-01T16:29:47;7.20;94.80
8910;DHT22;4490;49.072;8.804;2023-02-01T16:32:17;7.20;94.80
8910;DHT22;4490;49.072;8.804;2023-02-01T16:34:44;7.20;94.50
8910;DHT22;4490;49.072;8.804;2023-02-01T16:37:16;7.10;94.80
8910;DHT22;4490;49.072;8.804;2023-02-01T16:39:43;7.20;94.70
8910;DHT22;4490;49.072;8.804;2023-02-01T16:42:13;7.20;94.80
8910;DHT22;4490;49.072;8.804;2023-02-01T16:44:39;7.20;94.80
8910;DHT22;4490;49.072;8.804;2023-02-01T16:47:12;7.20;94.70
8910;DHT22;4490;49.072;8.804;2023-02-01T16:49:41;7.10;94.60
8910;DHT22;4490;49.072;8.804;2023-02-01T16:52:18;7.10;94.40
8910;DHT22;4490;49.072;8.804;2023-02-01T16:54:46;7.20;94.50
8910;DHT22;4490;49.072;8.804;2023-02-01T16:57:13;7.20;94.50
8910;DHT22;4490;49.072;8.804;2023-02-01T16:59:40;7.20;94.30
8910;DHT22;4490;49.072;8.804;2023-02-01T17:02:08;7.20;94.50
8910;DHT22;4490;49.072;8.804;2023-02-01T17:04:35;7.20;94.70
8910;DHT22;4490;49.072;8.804;2023-02-01T17:07:01;7.20;94.30
8910;DHT22;4490;49.072;8.804;2023-02-01T17:09:35;7.20;94.40
8910;DHT22;4490;49.072;8.804;2023-02-01T17:12:02;7.20;94.30
8910;DHT22;4490;49.072;8.804;2023-02-01T17:14:31;7.20;94.00
8910;DHT22;4490;49.072;8.804;2023-02-01T17:16:57;7.20;94.10
8910;DHT22;4490;49.072;8.804;2023-02-01T17:19:24;7.30;94.10
8910;DHT22;4490;49.072;8.804;2023-02-01T17:21:51;7.20;94.00
8910;DHT22;4490;49.072;8.804;2023-02-01T17:24:23;7.20;93.90
8910;DHT22;4490;49.072;8.804;2023-02-01T17:26:49;7.20;93.80
8910;DHT22;4490;49.072;8.804;2023-02-01T17:29:17;7.20;93.90
8910;DHT22;4490;49.072;8.804;2023-02-01T17:31:46;7.20;93.70
8910;DHT22;4490;49.072;8.804;2023-02-01T17:34:14;7.10;93.40
8910;DHT22;4490;49.072;8.804;2023-02-01T17:36:41;7.10;93.70
8910;DHT22;4490;49.072;8.804;2023-02-01T17:39:08;7.10;93.80
8910;DHT22;4490;49.072;8.804;2023-02-01T17:41:33;7.10;93.90
8910;DHT22;4490;49.072;8.804;2023-02-01T17:44:00;7.10;93.90
8910;DHT22;4490;49.072;8.804;2023-02-01T17:46:26;7.10;94.10
8910;DHT22;4490;49.072;8.804;2023-02-01T17:48:53;7.10;94.10
8910;DHT22;4490;49.072;8.804;2023-02-01T17:51:24;7.10;94.20
8910;DHT22;4490;49.072;8.804;2023-02-01T17:53:51;7.10;94.30
8910;DHT22;4490;49.072;8.804;2023-02-01T17:56:22;7.00;94.20
8910;DHT22;4490;49.072;8.804;2023-02-01T17:58:48;7.10;94.40
8910;DHT22;4490;49.072;8.804;2023-02-01T18:01:19;7.10;94.30
8910;DHT22;4490;49.072;8.804;2023-02-01T18:03:45;7.20;94.30
8910;DHT22;4490;49.072;8.804;2023-02-01T18:06:19;7.10;94.30
8910;DHT22;4490;49.072;8.804;2023-02-01T18:08:46;7.20;94.00
8910;DHT22;4490;49.072;8.804;2023-02-01T18:11:14;7.20;94.10
8910;DHT22;4490;49.072;8.804;2023-02-01T18:13:41;7.10;93.90
8910;DHT22;4490;49.072;8.804;2023-02-01T18:18:43;7.20;93.70
8910;DHT22;4490;49.072;8.804;2023-02-01T18:21:09;7.20;93.70
8910;DHT22;4490;49.072;8.804;2023-02-01T18:23:35;7.20;93.50
8910;DHT22;4490;49.072;8.804;2023-02-01T18:26:02;7.20;93.70
8910;DHT22;4490;49.072;8.804;2023-02-01T18:28:29;7.20;93.80
8910;DHT22;4490;49.072;8.804;2023-02-01T18:30:55;7.20;93.90
8910;DHT22;4490;49.072;8.804;2023-02-01T18:33:21;7.20;94.10
8910;DHT22;4490;49.072;8.804;2023-02-01T18:35:47;7.20;93.90
8910;DHT22;4490;49.072;8.804;2023-02-01T18:38:12;7.20;94.10
8910;DHT22;4490;49.072;8.804;2023-02-01T18:40:50;7.10;94.20